createdAt,value
2023-01-27T00:00:38.762Z,23.20
2023-01-27T00:03:05.674Z,31.77
2023-01-27T00:05:32.282Z,22.77
2023-01-27T00:07:59.141Z,23.23
2023-01-27T00:10:26.896Z,23.60
2023-01-27T00:13:12.404Z,24.08
2023-01-27T00:15:39.507Z,26.00
2023-01-27T00:18:06.524Z,27.83
2023-01-27T00:20:52.169Z,24.50
2023-01-27T00:23:42.286Z,26.73
2023-01-27T00:26:12.454Z,24.45
2023-01-27T00:28:40.247Z,24.70
2023-01-27T00:31:27.634Z,24.00
2023-01-27T00:33:56.159Z,25.40
2023-01-27T00:36:23.067Z,25.75
2023-01-27T00:38:49.770Z,25.95
2023-01-27T00:41:19.643Z,25.02
2023-01-27T00:43:47.753Z,25.77
2023-01-27T00:46:15.535Z,27.20
2023-01-27T00:48:42.457Z,26.85
2023-01-27T00:51:09.468Z,25.10
2023-01-27T00:53:36.167Z,26.88
2023-01-27T00:56:02.884Z,27.17
2023-01-27T00:58:30.075Z,27.02
2023-01-27T01:00:59.481Z,27.92
2023-01-27T01:03:31.491Z,23.63
2023-01-27T01:06:06.164Z,27.13
2023-01-27T01:08:34.041Z,26.58
2023-01-27T01:11:00.889Z,22.67
2023-01-27T01:13:28.410Z,25.95
2023-01-27T01:15:56.143Z,25.20
2023-01-27T01:18:24.059Z,28.38
2023-01-27T01:20:50.695Z,24.60
2023-01-27T01:23:17.695Z,25.95
2023-01-27T01:25:53.901Z,29.67
2023-01-27T01:28:21.288Z,30.45
2023-01-27T01:30:48.165Z,26.13
2023-01-27T01:33:15.389Z,26.13
2023-01-27T01:35:42.742Z,23.70
2023-01-27T01:38:09.777Z,30.13
2023-01-27T01:40:43.354Z,27.02
2023-01-27T01:43:18.135Z,28.15
2023-01-27T01:45:55.898Z,30.23
2023-01-27T01:48:32.437Z,27.67
2023-01-27T01:51:06.127Z,33.30
2023-01-27T01:53:38.920Z,28.58
2023-01-27T01:56:14.097Z,25.10
2023-01-27T02:01:12.321Z,27.15
2023-01-27T02:03:41.178Z,27.00
2023-01-27T02:06:07.918Z,31.85
2023-01-27T02:08:40.132Z,28.83
2023-01-27T02:11:08.606Z,31.17
2023-01-27T02:13:35.362Z,32.20
2023-01-27T02:16:02.895Z,37.67
2023-01-27T02:18:30.142Z,29.85
2023-01-27T02:20:57.586Z,30.73
2023-01-27T02:24:12.325Z,29.23
2023-01-27T02:26:43.079Z,27.98
2023-01-27T02:29:12.459Z,28.67
2023-01-27T02:31:39.442Z,33.42
2023-01-27T02:34:09.372Z,29.17
2023-01-27T02:36:58.888Z,29.35
2023-01-27T02:39:32.819Z,30.15
2023-01-27T02:42:01.441Z,30.15
2023-01-27T02:44:28.058Z,34.08
2023-01-27T02:46:54.808Z,32.78
2023-01-27T02:49:21.399Z,35.95
2023-01-27T02:51:48.014Z,34.47
2023-01-27T02:54:14.888Z,31.00
2023-01-27T02:56:41.502Z,32.20
2023-01-27T02:59:08.146Z,34.58
2023-01-27T03:01:34.867Z,36.25
2023-01-27T03:04:02.342Z,27.92
2023-01-27T03:06:29.206Z,38.38
2023-01-27T03:08:55.893Z,37.28
2023-01-27T03:11:40.920Z,34.95
2023-01-27T03:14:08.662Z,36.08
2023-01-27T03:16:53.933Z,32.25
2023-01-27T03:19:20.535Z,35.70
2023-01-27T03:21:51.056Z,34.05
2023-01-27T03:24:18.105Z,35.25
2023-01-27T03:26:44.833Z,33.42
2023-01-27T03:29:30.235Z,65.07
2023-01-27T03:31:57.016Z,50.55
2023-01-27T03:34:23.907Z,36.92
2023-01-27T03:37:09.069Z,33.47
2023-01-27T03:39:54.432Z,40.88
2023-01-27T03:42:39.983Z,44.50
2023-01-27T03:45:25.886Z,70.10
2023-01-27T03:47:52.482Z,66.95
2023-01-27T03:50:37.362Z,46.50
2023-01-27T03:53:05.258Z,38.40
2023-01-27T03:55:33.782Z,37.08
2023-01-27T03:58:19.555Z,34.75
2023-01-27T04:00:49.494Z,36.70
2023-01-27T04:03:34.801Z,34.70
2023-01-27T04:06:28.809Z,39.83
2023-01-27T04:08:55.571Z,39.70
2023-01-27T04:11:41.755Z,44.15
2023-01-27T04:14:09.987Z,35.42
2023-01-27T04:16:36.886Z,38.22
2023-01-27T04:19:05.459Z,37.03
2023-01-27T04:21:32.820Z,37.47
2023-01-27T04:23:59.972Z,35.38
2023-01-27T04:26:32.993Z,36.35
2023-01-27T04:29:00.565Z,39.53
2023-01-27T04:31:27.379Z,38.00
2023-01-27T04:33:54.281Z,35.58
2023-01-27T04:36:21.414Z,35.05
2023-01-27T04:38:48.067Z,39.67
2023-01-27T04:41:14.709Z,37.85
2023-01-27T04:43:41.347Z,39.88
2023-01-27T04:46:08.063Z,38.17
2023-01-27T04:48:34.729Z,35.42
2023-01-27T04:51:01.370Z,35.28
2023-01-27T04:53:28.014Z,36.17
2023-01-27T04:56:05.233Z,31.02
2023-01-27T04:58:32.242Z,38.72
2023-01-27T05:00:58.939Z,33.65
2023-01-27T05:03:25.529Z,32.63
2023-01-27T05:05:52.181Z,33.85
2023-01-27T05:08:18.919Z,34.33
2023-01-27T05:10:45.698Z,39.55
2023-01-27T05:13:12.618Z,35.33
2023-01-27T05:15:39.495Z,35.58
2023-01-27T05:18:06.128Z,36.22
2023-01-27T05:20:32.894Z,33.33
2023-01-27T05:23:18.225Z,37.42
2023-01-27T05:25:45.082Z,27.05
2023-01-27T05:28:12.235Z,34.05
2023-01-27T05:30:39.590Z,32.85
2023-01-27T05:33:06.357Z,33.22
2023-01-27T05:35:33.961Z,32.05
2023-01-27T05:38:00.919Z,36.40
2023-01-27T05:40:27.664Z,34.67
2023-01-27T05:42:54.766Z,29.80
2023-01-27T05:45:21.472Z,39.97
2023-01-27T05:47:51.577Z,35.45
2023-01-27T05:50:18.754Z,36.45
2023-01-27T05:52:45.736Z,39.22
2023-01-27T05:55:12.641Z,38.20
2023-01-27T05:57:39.493Z,36.15
2023-01-27T06:00:07.141Z,35.80
2023-01-27T06:02:33.808Z,52.92
2023-01-27T06:05:00.493Z,44.38
2023-01-27T06:07:27.133Z,40.38
2023-01-27T06:09:53.807Z,34.08
2023-01-27T06:12:20.377Z,33.58
2023-01-27T06:14:47.002Z,36.63
2023-01-27T06:17:13.676Z,40.58
2023-01-27T06:19:40.295Z,33.72
2023-01-27T06:22:06.939Z,36.83
2023-01-27T06:24:33.775Z,44.08
2023-01-27T06:27:00.428Z,42.80
2023-01-27T06:29:27.043Z,42.25
2023-01-27T06:31:53.764Z,44.42
2023-01-27T06:34:20.591Z,54.65
2023-01-27T06:36:47.274Z,52.72
2023-01-27T06:39:13.928Z,38.10
2023-01-27T06:41:40.532Z,44.40
2023-01-27T06:44:07.153Z,36.25
2023-01-27T06:46:34.311Z,42.35
2023-01-27T06:49:01.134Z,41.58
2023-01-27T06:51:27.919Z,41.03
2023-01-27T06:53:56.166Z,45.83
2023-01-27T06:56:22.841Z,46.28
2023-01-27T06:58:49.525Z,46.45
2023-01-27T07:01:16.224Z,37.92
2023-01-27T07:03:44.707Z,40.92
2023-01-27T07:06:11.685Z,42.33
2023-01-27T07:08:38.380Z,35.13
2023-01-27T07:11:05.412Z,37.88
2023-01-27T07:13:32.092Z,36.53
2023-01-27T07:16:00.364Z,34.22
2023-01-27T07:18:27.016Z,42.13
2023-01-27T07:20:53.809Z,43.35
2023-01-27T07:23:20.604Z,41.45
2023-01-27T07:25:47.223Z,37.88
2023-01-27T07:28:14.091Z,37.08
2023-01-27T07:30:40.743Z,37.10
2023-01-27T07:33:12.246Z,39.58
2023-01-27T07:35:39.757Z,33.53
2023-01-27T07:38:07.136Z,43.30
2023-01-27T07:40:34.025Z,36.10
2023-01-27T07:43:01.273Z,37.03
2023-01-27T07:45:28.682Z,36.72
2023-01-27T07:48:01.512Z,40.78
2023-01-27T07:50:28.571Z,34.95
2023-01-27T07:52:57.981Z,41.58
2023-01-27T07:55:24.620Z,40.85
2023-01-27T07:57:53.842Z,32.25
2023-01-27T08:00:24.404Z,35.42
2023-01-27T08:02:54.985Z,35.15
2023-01-27T08:05:25.400Z,32.58
2023-01-27T08:07:53.632Z,40.75
2023-01-27T08:10:20.742Z,33.05
2023-01-27T08:12:47.655Z,36.97
2023-01-27T08:15:15.537Z,29.60
2023-01-27T08:17:43.754Z,38.95
2023-01-27T08:20:11.727Z,36.72
2023-01-27T08:22:38.541Z,34.78
2023-01-27T08:25:05.673Z,39.15
2023-01-27T08:27:32.398Z,37.10
2023-01-27T08:29:59.080Z,31.60
2023-01-27T08:32:25.722Z,36.95
2023-01-27T08:34:52.357Z,46.92
2023-01-27T08:37:18.983Z,117.70
2023-01-27T08:39:45.600Z,180.05
2023-01-27T08:42:12.938Z,188.38
2023-01-27T08:44:39.661Z,87.28
2023-01-27T08:47:06.306Z,55.65
2023-01-27T08:49:32.923Z,62.78
2023-01-27T08:51:59.546Z,42.17
2023-01-27T08:54:26.193Z,48.03
2023-01-27T08:56:52.809Z,45.97
2023-01-27T08:59:19.417Z,39.17
2023-01-27T09:01:46.113Z,37.20
2023-01-27T09:04:12.763Z,43.72
2023-01-27T09:06:39.438Z,41.55
2023-01-27T09:09:11.134Z,61.70
2023-01-27T09:11:41.251Z,44.03
2023-01-27T09:14:08.221Z,45.58
2023-01-27T09:16:34.970Z,36.28
2023-01-27T09:19:01.703Z,37.55
2023-01-27T09:21:28.298Z,38.97
2023-01-27T09:23:55.056Z,42.67
2023-01-27T09:26:21.837Z,40.53
2023-01-27T09:28:48.420Z,38.83
2023-01-27T09:31:15.188Z,36.13
2023-01-27T09:33:41.903Z,45.22
2023-01-27T09:36:15.653Z,38.00
2023-01-27T09:38:47.257Z,38.75
2023-01-27T09:42:15.617Z,36.57
2023-01-27T09:45:17.403Z,35.45
2023-01-27T09:48:27.310Z,41.80
2023-01-27T09:51:31.396Z,32.63
2023-01-27T09:54:13.265Z,37.70
2023-01-27T09:57:11.932Z,40.67
2023-01-27T10:00:21.801Z,38.92
2023-01-27T10:03:17.620Z,40.60
2023-01-27T10:06:22.424Z,35.00
2023-01-27T10:09:14.466Z,37.30
2023-01-27T10:38:39.298Z,40.28
2023-01-27T10:41:25.357Z,33.75
2023-01-27T10:44:30.255Z,40.15
2023-01-27T10:47:24.460Z,34.97
2023-01-27T10:50:01.554Z,46.20
2023-01-27T10:52:38.437Z,41.78
2023-01-27T10:55:23.107Z,34.47
2023-01-27T10:58:06.995Z,42.17
2023-01-27T11:01:18.093Z,43.03
2023-01-27T11:03:45.033Z,41.53
2023-01-27T11:06:17.790Z,47.58
2023-01-27T11:08:52.177Z,35.20
2023-01-27T11:11:40.560Z,39.50
2023-01-27T11:14:45.800Z,35.05
2023-01-27T11:17:32.111Z,36.95
2023-01-27T11:20:25.251Z,37.60
2023-01-27T11:23:38.205Z,39.50
2023-01-27T11:26:39.650Z,39.60
2023-01-27T11:30:10.645Z,39.22
2023-01-27T11:32:51.218Z,42.05
2023-01-27T11:35:17.999Z,39.78
2023-01-27T11:37:48.902Z,38.15
2023-01-27T11:40:38.430Z,39.72
2023-01-27T11:43:05.498Z,42.40
2023-01-27T11:45:35.792Z,36.58
2023-01-27T11:48:07.152Z,41.42
2023-01-27T11:50:35.982Z,30.08
2023-01-27T11:53:28.257Z,33.95
2023-01-27T11:56:02.222Z,38.53
2023-01-27T11:58:36.596Z,40.38
2023-01-27T12:01:10.237Z,44.28
2023-01-27T12:03:51.183Z,36.97
2023-01-27T12:06:32.369Z,40.95
2023-01-27T12:08:58.997Z,37.67
2023-01-27T12:11:28.918Z,36.70
2023-01-27T12:13:58.735Z,42.00
2023-01-27T12:16:52.796Z,43.38
2023-01-27T12:19:27.973Z,43.35
2023-01-27T12:21:58.182Z,42.00
2023-01-27T12:24:30.663Z,38.45
2023-01-27T12:29:38.833Z,34.08
2023-01-27T12:32:15.928Z,37.88
2023-01-27T12:34:46.322Z,31.25
2023-01-27T12:37:23.046Z,35.40
2023-01-27T12:39:57.327Z,38.53
2023-01-27T12:42:37.925Z,37.17
2023-01-27T12:45:24.089Z,39.53
2023-01-27T12:48:21.606Z,36.33
2023-01-27T12:50:56.506Z,32.10
2023-01-27T12:53:28.013Z,38.33
2023-01-27T12:56:17.745Z,40.30
2023-01-27T12:59:05.785Z,35.67
2023-01-27T13:01:41.248Z,37.10
2023-01-27T13:04:20.537Z,29.35
2023-01-27T13:06:51.345Z,30.20
2023-01-27T13:09:52.663Z,26.88
2023-01-27T13:12:30.836Z,23.83
2023-01-27T13:15:05.611Z,18.95
2023-01-27T13:17:34.891Z,20.42
2023-01-27T13:20:16.766Z,22.83
2023-01-27T13:23:11.942Z,20.23
2023-01-27T13:26:02.055Z,20.73
2023-01-27T13:28:50.145Z,22.77
2023-01-27T13:31:22.796Z,26.30
2023-01-27T13:33:58.210Z,22.95
2023-01-27T13:36:51.941Z,29.55
2023-01-27T13:39:43.313Z,27.08
2023-01-27T13:42:23.484Z,27.15
2023-01-27T13:45:21.583Z,26.00
2023-01-27T13:48:38.563Z,25.92
2023-01-27T13:51:17.257Z,31.05
2023-01-27T13:53:47.106Z,28.65
2023-01-27T13:57:08.634Z,29.02
2023-01-27T13:59:45.719Z,33.50
2023-01-27T14:02:27.346Z,31.42
2023-01-27T14:05:52.244Z,33.88
2023-01-27T14:08:37.497Z,35.13
2023-01-27T14:11:11.961Z,35.00
2023-01-27T14:14:15.170Z,36.72
2023-01-27T14:17:02.909Z,40.80
2023-01-27T14:19:52.187Z,32.70
2023-01-27T14:22:39.949Z,37.30
2023-01-27T14:25:25.451Z,39.38
2023-01-27T14:28:10.147Z,38.10
2023-01-27T14:30:50.595Z,30.98
2023-01-27T14:33:23.181Z,38.88
2023-01-27T14:36:16.736Z,34.90
2023-01-27T14:39:14.195Z,41.03
2023-01-27T14:42:00.520Z,39.58
2023-01-27T14:45:03.176Z,38.20
2023-01-27T14:47:53.385Z,43.50
2023-01-27T14:50:42.942Z,35.75
2023-01-27T14:53:19.930Z,38.17
2023-01-27T14:56:18.448Z,36.78
2023-01-27T14:58:54.126Z,35.03
2023-01-27T15:01:33.723Z,38.08
2023-01-27T15:04:03.086Z,37.08
2023-01-27T15:06:47.739Z,46.45
2023-01-27T15:09:45.530Z,41.97
2023-01-27T15:12:21.522Z,40.65
2023-01-27T15:15:19.914Z,31.33
2023-01-27T15:18:19.513Z,33.90
2023-01-27T15:21:11.650Z,39.95
2023-01-27T15:23:58.012Z,40.90
2023-01-27T15:26:28.185Z,35.72
2023-01-27T15:28:55.353Z,45.03
2023-01-27T15:31:27.769Z,38.80
2023-01-27T15:36:28.578Z,38.08
2023-01-27T15:41:57.841Z,35.53
2023-01-27T15:44:24.397Z,36.67
2023-01-27T15:46:53.639Z,39.20
2023-01-27T15:49:27.994Z,37.13
2023-01-27T15:52:07.844Z,37.95
2023-01-27T15:54:35.742Z,37.83
2023-01-27T15:57:06.554Z,35.33
2023-01-27T15:59:58.957Z,30.17
2023-01-27T16:04:56.843Z,34.50
2023-01-27T16:07:32.752Z,36.70
2023-01-27T16:10:00.763Z,35.45
2023-01-27T16:12:48.470Z,48.17
2023-01-27T16:15:23.532Z,39.05
2023-01-27T16:18:00.646Z,29.23
2023-01-27T16:20:31.427Z,34.97
2023-01-27T16:23:02.630Z,39.92
2023-01-27T16:25:39.305Z,33.63
2023-01-27T16:28:26.357Z,40.28
2023-01-27T16:31:05.593Z,40.53
2023-01-27T16:33:41.308Z,39.58
2023-01-27T16:36:17.400Z,36.55
2023-01-27T16:38:45.658Z,31.35
2023-01-27T16:41:39.296Z,36.75
2023-01-27T16:44:25.706Z,34.53
2023-01-27T16:47:05.115Z,35.95
2023-01-27T16:49:41.455Z,34.20
2023-01-27T16:52:18.296Z,30.75
2023-01-27T16:54:51.937Z,38.17
2023-01-27T16:57:36.460Z,41.47
2023-01-27T17:00:08.874Z,39.83
2023-01-27T17:02:35.868Z,39.90
2023-01-27T17:05:13.849Z,31.05
2023-01-27T17:07:40.543Z,29.63
2023-01-27T17:10:29.200Z,39.45
2023-01-27T17:13:00.472Z,32.80
2023-01-27T17:15:36.954Z,36.67
2023-01-27T17:18:09.354Z,38.45
2023-01-27T17:23:05.768Z,39.78
2023-01-27T17:25:37.800Z,36.90
2023-01-27T17:28:11.157Z,32.25
2023-01-27T17:30:42.028Z,37.50
2023-01-27T17:33:17.127Z,35.20
2023-01-27T17:35:50.631Z,34.65
2023-01-27T17:38:26.054Z,38.28
2023-01-27T17:40:55.010Z,36.58
2023-01-27T17:43:31.937Z,36.97
2023-01-27T17:46:20.191Z,44.97
2023-01-27T17:49:03.458Z,34.42
2023-01-27T17:51:40.317Z,33.58
2023-01-27T17:54:26.928Z,43.33
2023-01-27T17:57:18.264Z,33.85
2023-01-27T18:00:15.947Z,35.05
2023-01-27T18:03:03.607Z,33.88
2023-01-27T18:05:34.217Z,36.05
2023-01-27T18:08:01.673Z,35.25
2023-01-27T18:10:38.060Z,36.72
2023-01-27T18:13:40.143Z,31.35
2023-01-27T18:16:18.740Z,40.30
2023-01-27T18:18:47.161Z,29.77
2023-01-27T18:21:18.938Z,34.10
2023-01-27T18:23:54.481Z,34.15
2023-01-27T18:26:44.555Z,30.63
2023-01-27T18:29:25.651Z,34.10
2023-01-27T18:31:57.960Z,32.35
2023-01-27T18:34:32.791Z,28.13
2023-01-27T18:37:08.940Z,43.20
2023-01-27T18:39:39.021Z,29.85
2023-01-27T18:42:15.377Z,26.90
2023-01-27T18:44:42.096Z,31.05
2023-01-27T18:47:32.003Z,31.33
2023-01-27T18:50:18.135Z,30.45
2023-01-27T18:52:45.470Z,32.50
2023-01-27T18:55:26.942Z,37.13
2023-01-27T18:57:58.993Z,32.45
2023-01-27T19:00:26.691Z,31.17
2023-01-27T19:02:56.479Z,31.25
2023-01-27T19:05:27.195Z,27.77
2023-01-27T19:07:53.738Z,29.80
2023-01-27T19:10:25.515Z,25.85
2023-01-27T19:12:53.354Z,25.92
2023-01-27T19:15:23.912Z,31.25
2023-01-27T19:17:52.806Z,28.05
2023-01-27T19:20:22.796Z,26.92
2023-01-27T19:22:51.156Z,29.67
2023-01-27T19:25:17.869Z,24.58
2023-01-27T19:27:47.923Z,24.00
2023-01-27T19:30:29.766Z,24.77
2023-01-27T19:32:57.105Z,23.50
2023-01-27T19:35:25.317Z,32.58
2023-01-27T19:37:55.462Z,26.02
2023-01-27T19:40:28.047Z,26.27
2023-01-27T19:42:55.187Z,24.02
2023-01-27T19:45:22.490Z,21.83
2023-01-27T19:47:50.051Z,25.45
2023-01-27T19:50:25.382Z,30.13
2023-01-27T19:52:52.180Z,24.75
2023-01-27T19:55:23.120Z,24.33
2023-01-27T19:57:50.625Z,23.95
2023-01-27T20:00:33.095Z,26.08
2023-01-27T20:02:59.921Z,26.25
2023-01-27T20:05:28.544Z,25.73
2023-01-27T20:07:56.822Z,29.85
2023-01-27T20:10:29.563Z,29.50
2023-01-27T20:12:58.914Z,32.22
2023-01-27T20:15:28.952Z,32.22
2023-01-27T20:17:56.094Z,28.65
2023-01-27T20:20:23.691Z,26.95
2023-01-27T20:22:50.732Z,26.35
2023-01-27T20:25:22.926Z,29.67
2023-01-27T20:27:52.640Z,28.50
2023-01-27T20:30:32.325Z,32.65
2023-01-27T20:33:00.475Z,23.38
2023-01-27T20:35:28.028Z,22.35
2023-01-27T20:37:55.255Z,24.55
2023-01-27T20:40:25.627Z,23.58
2023-01-27T20:42:52.321Z,24.58
2023-01-27T20:45:20.199Z,24.67
2023-01-27T20:47:51.537Z,22.15
2023-01-27T20:50:19.433Z,30.15
2023-01-27T20:52:48.302Z,28.17
2023-01-27T20:55:17.581Z,25.77
2023-01-27T20:57:44.754Z,24.33
2023-01-27T21:00:17.015Z,25.23
2023-01-27T21:02:43.687Z,35.13
2023-01-27T21:05:10.410Z,28.27
2023-01-27T21:07:37.068Z,30.50
2023-01-27T21:10:04.611Z,28.35
2023-01-27T21:12:31.233Z,26.08
2023-01-27T21:14:57.833Z,33.42
2023-01-27T21:17:24.620Z,30.08
2023-01-27T21:19:51.239Z,27.73
2023-01-27T21:22:17.868Z,32.47
2023-01-27T21:24:44.439Z,33.45
2023-01-27T21:27:11.964Z,30.55
2023-01-27T21:29:40.620Z,34.38
2023-01-27T21:32:07.177Z,34.75
2023-01-27T21:34:33.859Z,30.30
2023-01-27T21:37:00.518Z,32.92
2023-01-27T21:39:27.335Z,32.75
2023-01-27T21:41:53.877Z,35.45
2023-01-27T21:44:41.847Z,30.30
2023-01-27T21:47:11.117Z,38.95
2023-01-27T21:49:58.231Z,99.15
2023-01-27T21:52:29.277Z,96.10
2023-01-27T21:54:55.831Z,55.65
2023-01-27T21:57:22.664Z,62.50
2023-01-27T21:59:49.495Z,58.70
2023-01-27T22:02:16.395Z,39.20
2023-01-27T22:04:44.715Z,47.47
2023-01-27T22:07:13.415Z,43.55
2023-01-27T22:09:40.882Z,33.25
2023-01-27T22:12:10.025Z,33.55
2023-01-27T22:14:36.736Z,31.42
2023-01-27T22:17:03.836Z,29.80
2023-01-27T22:19:30.590Z,31.98
2023-01-27T22:21:57.570Z,39.47
2023-01-27T22:24:24.490Z,31.67
2023-01-27T22:26:51.531Z,32.45
2023-01-27T22:29:18.279Z,35.03
2023-01-27T22:31:44.915Z,28.92
2023-01-27T22:34:11.537Z,33.40
2023-01-27T22:36:38.208Z,36.78
2023-01-27T22:39:05.177Z,34.33
2023-01-27T22:41:32.182Z,34.08
2023-01-27T22:43:58.809Z,30.95
2023-01-27T22:46:25.718Z,26.40
2023-01-27T22:48:52.338Z,28.70
2023-01-27T22:51:19.140Z,29.20
2023-01-27T22:53:46.612Z,25.98
2023-01-27T22:56:13.541Z,31.80
2023-01-27T22:58:40.180Z,34.58
2023-01-27T23:01:07.530Z,29.67
2023-01-27T23:03:34.365Z,32.90
2023-01-27T23:06:08.246Z,34.38
2023-01-27T23:08:35.177Z,26.00
2023-01-27T23:11:04.241Z,26.65
2023-01-27T23:13:31.575Z,33.80
2023-01-27T23:15:58.541Z,24.58
2023-01-27T23:18:25.316Z,35.17
2023-01-27T23:20:52.580Z,29.35
2023-01-27T23:23:19.727Z,34.58
2023-01-27T23:25:47.632Z,30.58
2023-01-27T23:28:16.629Z,56.85
2023-01-27T23:30:47.973Z,32.80
2023-01-27T23:33:17.058Z,28.30
2023-01-27T23:35:43.884Z,33.92
2023-01-27T23:38:26.408Z,32.67
2023-01-27T23:41:01.736Z,33.50
2023-01-27T23:43:30.897Z,33.10
2023-01-27T23:45:58.163Z,32.55
2023-01-27T23:48:25.076Z,29.00
2023-01-27T23:50:51.876Z,33.72
2023-01-27T23:53:18.610Z,32.78
2023-01-27T23:55:53.720Z,48.15
2023-01-27T23:58:20.691Z,36.83
